Time;durP1;ratioP1;P1;durP2;ratioP2;P2;SDS_P1;SDS_P2;PMS_P1;PMS_P2;Temp;Humidity;BMP_temperature;BMP_pressure;BME280_temperature;BME280_humidity;BME280_pressure;Samples;Min_cycle;Max_cycle;Signal;HPM_P1;HPM_P2
2021/12/12 00:01:24;;;;;;;6.15;4.43;;;3.70;54.70;;;;;;5045871;28;34854;-76
2021/12/12 00:03:54;;;;;;;7.22;4.88;;;3.80;54.70;;;;;;5047203;28;33712;-76
2021/12/12 00:06:25;;;;;;;10.57;4.43;;;3.80;54.80;;;;;;5030360;28;34291;-76
2021/12/12 00:08:56;;;;;;;7.03;4.28;;;3.90;54.80;;;;;;5014675;28;34123;-76
2021/12/12 00:11:25;;;;;;;7.38;4.88;;;3.90;54.80;;;;;;5030157;28;35982;-76
2021/12/12 00:14:01;;;;;;;7.55;4.90;;;3.90;54.80;;;;;;5046394;28;34225;-77
2021/12/12 00:16:28;;;;;;;12.32;5.82;;;3.90;54.90;;;;;;5046157;28;34133;-76
2021/12/12 00:18:54;;;;;;;7.82;5.72;;;4.00;55.00;;;;;;5046599;28;34412;-76
2021/12/12 00:21:22;;;;;;;10.70;5.63;;;4.00;55.00;;;;;;5046230;28;35597;-76
2021/12/12 00:23:48;;;;;;;6.32;5.15;;;4.00;55.00;;;;;;5029966;28;34310;-76
2021/12/12 00:26:15;;;;;;;8.25;6.03;;;4.00;55.00;;;;;;5045839;28;34199;-76
2021/12/12 00:28:41;;;;;;;10.30;5.47;;;4.00;55.00;;;;;;5030419;28;34062;-76
2021/12/12 00:31:10;;;;;;;10.15;5.95;;;4.10;55.70;;;;;;5029279;28;36071;-76
2021/12/12 00:33:41;;;;;;;12.77;6.10;;;4.10;55.00;;;;;;5046414;28;34276;-76
2021/12/12 00:36:07;;;;;;;9.85;5.53;;;4.10;55.00;;;;;;5029158;28;34410;-76
2021/12/12 00:38:35;;;;;;;9.00;5.75;;;4.10;55.00;;;;;;5013981;28;34571;-76
2021/12/12 00:41:07;;;;;;;12.23;5.40;;;4.20;55.00;;;;;;5028888;28;35530;-76
2021/12/12 00:43:39;;;;;;;10.43;5.68;;;4.20;55.00;;;;;;5045228;28;34191;-76
2021/12/12 00:46:08;;;;;;;8.90;5.32;;;4.20;55.00;;;;;;5029815;28;34383;-76
2021/12/12 00:48:35;;;;;;;11.07;6.15;;;4.20;55.00;;;;;;5046049;28;34356;-76
2021/12/12 00:51:04;;;;;;;9.20;5.63;;;4.30;55.00;;;;;;5044974;28;35821;-76
2021/12/12 00:53:31;;;;;;;8.82;5.80;;;4.30;55.00;;;;;;5029495;28;34197;-76
2021/12/12 00:55:58;;;;;;;8.30;5.50;;;4.30;55.00;;;;;;5044025;28;34365;-76
2021/12/12 00:58:25;;;;;;;15.40;6.05;;;4.30;55.00;;;;;;5043225;28;34117;-76
2021/12/12 01:00:56;;;;;;;9.70;5.20;;;4.30;55.00;;;;;;5028464;28;35811;-76
2021/12/12 01:03:28;;;;;;;10.82;5.85;;;4.40;55.00;;;;;;5028051;28;34312;-76
2021/12/12 01:05:57;;;;;;;6.97;5.45;;;4.40;55.00;;;;;;5028777;28;34244;-76
2021/12/12 01:08:24;;;;;;;10.80;5.68;;;4.40;55.00;;;;;;5028756;28;34165;-76
2021/12/12 01:10:55;;;;;;;10.68;6.05;;;4.40;55.00;;;;;;5045090;28;35815;-76
2021/12/12 01:13:22;;;;;;;11.60;5.53;;;4.40;55.00;;;;;;5044396;28;34437;-76
2021/12/12 01:15:53;;;;;;;9.38;5.82;;;4.40;55.00;;;;;;5044584;28;34223;-76
2021/12/12 01:18:25;;;;;;;12.25;6.07;;;4.40;55.00;;;;;;5013045;28;34508;-76
2021/12/12 01:20:59;;;;;;;9.10;5.45;;;4.50;55.10;;;;;;5031007;28;36233;-76
2021/12/12 01:23:39;;;;;;;11.15;5.88;;;4.50;55.10;;;;;;5047285;28;34163;-76
2021/12/12 01:26:08;;;;;;;9.52;5.90;;;4.50;55.20;;;;;;5046851;28;34127;-78
2021/12/12 01:28:37;;;;;;;11.82;6.50;;;4.50;55.20;;;;;;5047365;28;34518;-76
2021/12/12 01:31:08;;;;;;;10.25;5.00;;;4.50;55.10;;;;;;5030992;28;36476;-76
2021/12/12 01:33:36;;;;;;;9.73;5.47;;;4.60;55.10;;;;;;5031467;28;34293;-76
2021/12/12 01:36:12;;;;;;;8.23;5.45;;;4.60;55.10;;;;;;5047244;28;33648;-76
2021/12/12 01:41:41;;;;;;;6.72;4.97;;;4.60;55.10;;;;;;5050509;28;34863;-76
2021/12/12 01:44:27;;;;;;;11.05;5.13;;;4.60;55.10;;;;;;5050223;28;33659;-76
2021/12/12 01:47:07;;;;;;;9.23;5.32;;;4.60;55.10;;;;;;5047815;28;34180;-76
2021/12/12 01:49:38;;;;;;;9.82;5.32;;;4.60;55.10;;;;;;5047685;28;34254;-76
2021/12/12 01:52:08;;;;;;;9.82;5.70;;;4.60;55.10;;;;;;5048242;28;34248;-76
2021/12/12 01:54:44;;;;;;;11.65;5.60;;;4.70;55.20;;;;;;5031988;28;34202;-76
2021/12/12 01:57:13;;;;;;;8.50;5.07;;;4.70;55.20;;;;;;5048098;28;34125;-76
2021/12/12 01:59:41;;;;;;;8.73;4.85;;;4.70;55.20;;;;;;5066156;28;34167;-76
2021/12/12 02:02:14;;;;;;;6.60;5.10;;;4.70;55.10;;;;;;5048212;28;35064;-76
2021/12/12 02:04:47;;;;;;;8.82;4.50;;;4.70;55.20;;;;;;5066392;28;34154;-76
2021/12/12 02:07:17;;;;;;;7.80;5.25;;;4.70;55.20;;;;;;5031735;28;34343;-76
2021/12/12 02:09:44;;;;;;;9.32;4.70;;;4.70;55.20;;;;;;5034329;28;33997;-76
2021/12/12 02:12:11;;;;;;;7.72;5.30;;;4.70;55.40;;;;;;5050274;28;35910;-76
2021/12/12 02:14:40;;;;;;;6.05;5.07;;;4.70;55.40;;;;;;5035068;28;34188;-76
2021/12/12 02:17:17;;;;;;;9.57;5.70;;;4.70;55.30;;;;;;5052852;28;34325;-76
2021/12/12 02:20:05;;;;;;;13.52;5.28;;;4.80;55.30;;;;;;5034678;28;34197;-76
2021/12/12 02:22:49;;;;;;;10.93;5.32;;;4.80;55.40;;;;;;5054247;28;34201;-76
2021/12/12 02:36:05;;;;;;;10.90;5.20;;;4.90;55.50;;;;;;5068795;28;34158;-76
2021/12/12 02:38:33;;;;;;;7.82;5.25;;;4.90;55.60;;;;;;5068270;28;34084;-76
2021/12/12 02:41:06;;;;;;;12.13;5.35;;;4.90;55.60;;;;;;5050414;28;33825;-76
2021/12/12 02:43:37;;;;;;;9.50;4.78;;;4.90;55.50;;;;;;5033888;28;36056;-76
2021/12/12 02:46:05;;;;;;;10.27;4.57;;;4.90;55.50;;;;;;5033386;28;34340;-76
2021/12/12 02:48:39;;;;;;;9.00;4.82;;;5.00;55.50;;;;;;5049274;28;34082;-76
2021/12/12 02:51:10;;;;;;;12.48;4.95;;;5.00;55.50;;;;;;5050337;28;34171;-76
2021/12/12 02:53:44;;;;;;;11.20;5.10;;;5.00;55.50;;;;;;5049642;28;35611;-76
2021/12/12 02:56:19;;;;;;;9.45;4.78;;;5.00;55.50;;;;;;5033196;28;34126;-76
2021/12/12 02:58:47;;;;;;;10.95;4.53;;;5.10;55.60;;;;;;5050083;28;34412;-76
2021/12/12 03:01:21;;;;;;;9.60;4.35;;;5.10;55.70;;;;;;5033581;28;34287;-76
2021/12/12 03:03:49;;;;;;;8.98;3.90;;;5.10;55.60;;;;;;5049373;28;35867;-76
2021/12/12 03:06:20;;;;;;;11.43;3.63;;;5.10;55.60;;;;;;5066570;28;34271;-76
2021/12/12 03:08:51;;;;;;;10.20;4.20;;;5.10;55.50;;;;;;5047650;28;34338;-76
2021/12/12 03:11:17;;;;;;;10.45;4.10;;;5.10;55.40;;;;;;5031972;28;34468;-76
2021/12/12 03:13:44;;;;;;;7.38;3.38;;;5.10;55.60;;;;;;5047616;28;35910;-76
2021/12/12 03:16:12;;;;;;;10.18;3.78;;;5.20;55.50;;;;;;5032044;28;34260;-77
2021/12/12 03:18:42;;;;;;;7.68;3.72;;;5.20;55.50;;;;;;5045936;28;34192;-77
2021/12/12 03:21:17;;;;;;;7.78;3.75;;;5.20;55.40;;;;;;5027758;28;34198;-76
2021/12/12 03:23:50;;;;;;;7.55;3.53;;;5.30;55.50;;;;;;5044209;28;35716;-76
2021/12/12 03:26:18;;;;;;;6.50;3.53;;;5.30;55.40;;;;;;5028157;28;33701;-76
2021/12/12 03:28:48;;;;;;;9.07;3.95;;;5.30;55.50;;;;;;5028916;28;34617;-76
2021/12/12 03:31:19;;;;;;;6.40;2.97;;;5.30;55.40;;;;;;5046338;28;34151;-76
2021/12/12 03:33:45;;;;;;;6.25;3.03;;;5.30;55.40;;;;;;5028412;28;36216;-76
2021/12/12 03:36:13;;;;;;;7.80;3.70;;;5.40;55.40;;;;;;5046949;28;34144;-76
2021/12/12 03:38:46;;;;;;;8.52;3.45;;;5.40;55.30;;;;;;5046191;28;34176;-76
2021/12/12 03:41:18;;;;;;;8.23;3.45;;;5.40;55.20;;;;;;5029762;28;34414;-77
2021/12/12 03:43:45;;;;;;;9.25;3.45;;;5.40;55.20;;;;;;5046601;28;34413;-76
2021/12/12 03:46:11;;;;;;;6.18;3.10;;;5.40;55.20;;;;;;5045054;28;33951;-76
2021/12/12 03:48:41;;;;;;;5.88;2.70;;;5.40;55.20;;;;;;5047624;28;34184;-76
2021/12/12 03:51:08;;;;;;;12.43;3.75;;;5.40;55.20;;;;;;5014117;28;34185;-76
2021/12/12 03:53:37;;;;;;;5.53;2.80;;;5.50;55.30;;;;;;5045617;28;35735;-76
2021/12/12 03:56:04;;;;;;;9.70;3.85;;;5.40;55.20;;;;;;5027942;28;34379;-76
2021/12/12 03:58:31;;;;;;;7.78;3.42;;;5.40;55.20;;;;;;5028918;28;33769;-76
2021/12/12 04:01:05;;;;;;;12.30;3.50;;;5.50;55.30;;;;;;5047382;28;34151;-76
2021/12/12 04:03:31;;;;;;;6.20;2.88;;;5.50;55.20;;;;;;5029059;28;35690;-76
2021/12/12 04:06:01;;;;;;;7.10;3.78;;;5.40;55.10;;;;;;5029350;28;34350;-76
2021/12/12 04:08:30;;;;;;;11.35;3.78;;;5.50;55.20;;;;;;5045917;28;34333;-76
2021/12/12 04:10:56;;;;;;;8.35;3.70;;;5.50;55.20;;;;;;5029578;28;34200;-76
2021/12/12 04:13:22;;;;;;;10.45;3.85;;;5.50;55.20;;;;;;5046747;28;34338;-76
2021/12/12 04:15:50;;;;;;;10.68;4.20;;;5.50;55.30;;;;;;5045027;28;33761;-76
2021/12/12 04:18:21;;;;;;;9.02;3.55;;;5.50;55.30;;;;;;5047646;28;34170;-77
2021/12/12 04:20:47;;;;;;;8.52;3.90;;;5.50;55.30;;;;;;5050206;28;34209;-77
2021/12/12 04:23:17;;;;;;;9.52;4.10;;;5.50;55.40;;;;;;5067590;28;34381;-77
2021/12/12 04:25:43;;;;;;;9.80;4.03;;;5.50;55.40;;;;;;5048915;28;34438;-76
2021/12/12 04:28:09;;;;;;;5.47;3.60;;;5.50;55.30;;;;;;5049630;28;34192;-76
2021/12/12 04:30:35;;;;;;;11.95;3.65;;;5.50;55.30;;;;;;5049108;28;34471;-76
2021/12/12 04:33:01;;;;;;;9.18;3.38;;;5.50;55.30;;;;;;5048205;28;35850;-76
2021/12/12 04:35:27;;;;;;;5.57;3.33;;;5.50;55.40;;;;;;5065381;28;34103;-77
2021/12/12 04:37:56;;;;;;;9.43;3.03;;;5.50;55.40;;;;;;5048330;28;34136;-76
2021/12/12 04:40:26;;;;;;;8.55;2.92;;;5.50;55.40;;;;;;5030954;28;34182;-76
2021/12/12 04:42:55;;;;;;;6.00;2.92;;;5.50;55.40;;;;;;5031470;28;35555;-76
2021/12/12 04:51:48;;;;;;;5.35;2.55;;;5.50;55.50;;;;;;5052150;28;34142;-77
2021/12/12 04:54:30;;;;;;;7.25;2.88;;;5.40;55.40;;;;;;5067302;28;35278;-77
2021/12/12 04:57:04;;;;;;;6.43;2.78;;;5.50;55.50;;;;;;5034203;28;34185;-77
2021/12/12 04:59:54;;;;;;;5.82;3.15;;;5.50;55.50;;;;;;5049761;28;34155;-77
2021/12/12 05:02:31;;;;;;;6.07;2.75;;;5.60;55.50;;;;;;5053360;28;33895;-76
2021/12/12 05:05:11;;;;;;;6.78;2.70;;;5.60;55.60;;;;;;5034660;28;35813;-76
2021/12/12 05:07:43;;;;;;;6.90;2.83;;;5.60;55.60;;;;;;5033993;28;34126;-76
2021/12/12 05:10:16;;;;;;;5.05;3.15;;;5.50;55.50;;;;;;5033238;28;34163;-76
2021/12/12 05:12:48;;;;;;;4.85;2.72;;;5.50;55.60;;;;;;5031688;28;34617;-76
2021/12/12 05:15:20;;;;;;;6.20;3.17;;;5.50;55.70;;;;;;5031510;28;35795;-76
2021/12/12 05:17:54;;;;;;;6.55;2.72;;;5.50;55.70;;;;;;5046147;27;34168;-76
2021/12/12 05:20:28;;;;;;;3.97;2.78;;;5.50;55.70;;;;;;5027007;28;34213;-77
2021/12/12 05:22:56;;;;;;;7.80;2.90;;;5.50;55.80;;;;;;5044032;28;34231;-77
2021/12/12 05:25:28;;;;;;;7.18;2.72;;;5.50;55.80;;;;;;5025741;28;35665;-77
2021/12/12 05:27:57;;;;;;;6.40;2.90;;;5.50;55.80;;;;;;5041961;28;34433;-76
2021/12/12 05:30:27;;;;;;;9.63;3.08;;;5.50;55.80;;;;;;5041381;28;34165;-77
2021/12/12 05:32:54;;;;;;;6.30;2.63;;;5.50;55.80;;;;;;5025637;28;34101;-77
2021/12/12 05:35:24;;;;;;;6.43;2.55;;;5.50;55.80;;;;;;5042935;28;34896;-77
2021/12/12 05:37:52;;;;;;;5.82;3.10;;;5.50;55.80;;;;;;5041335;28;34357;-76
2021/12/12 05:40:28;;;;;;;7.70;3.15;;;5.50;55.80;;;;;;5023730;28;34244;-77
2021/12/12 05:42:59;;;;;;;6.60;3.55;;;5.50;55.80;;;;;;5024407;28;34084;-77
2021/12/12 05:45:27;;;;;;;8.52;3.30;;;5.50;55.80;;;;;;5042265;28;35701;-76
2021/12/12 05:47:54;;;;;;;7.18;3.00;;;5.50;55.90;;;;;;5042766;28;34108;-76
2021/12/12 05:50:21;;;;;;;5.15;3.30;;;5.50;55.90;;;;;;5026152;28;34074;-76
2021/12/12 05:52:48;;;;;;;6.68;3.20;;;5.50;56.00;;;;;;5044575;28;34180;-77
2021/12/12 05:55:16;;;;;;;5.95;3.08;;;5.50;56.00;;;;;;5044273;28;35439;-76
2021/12/12 05:57:45;;;;;;;6.38;2.70;;;5.50;55.90;;;;;;5026443;28;34442;-76
2021/12/12 06:00:15;;;;;;;7.05;3.35;;;5.50;55.90;;;;;;5042506;28;34110;-76
2021/12/12 06:02:42;;;;;;;7.90;3.15;;;5.50;56.00;;;;;;5044032;28;34023;-76
2021/12/12 06:05:09;;;;;;;3.85;2.78;;;5.50;56.10;;;;;;5042975;28;35567;-76
2021/12/12 06:07:36;;;;;;;9.45;2.90;;;5.50;56.00;;;;;;5041833;28;34230;-76
2021/12/12 06:10:08;;;;;;;9.30;2.88;;;5.50;56.00;;;;;;5025015;28;34403;-77
2021/12/12 06:12:36;;;;;;;4.93;2.55;;;5.50;56.10;;;;;;5024630;28;34434;-77
2021/12/12 06:15:08;;;;;;;10.90;3.17;;;5.40;55.90;;;;;;5024115;28;36550;-76
2021/12/12 06:17:36;;;;;;;3.38;2.30;;;5.40;56.00;;;;;;5024914;28;34084;-77
2021/12/12 06:20:06;;;;;;;5.20;2.90;;;5.40;56.10;;;;;;5040291;28;34100;-77
2021/12/12 06:22:33;;;;;;;3.60;2.72;;;5.40;56.00;;;;;;5041840;28;34338;-77
2021/12/12 06:24:59;;;;;;;6.75;2.47;;;5.40;56.20;;;;;;5041330;28;36539;-77
2021/12/12 06:27:25;;;;;;;6.85;2.80;;;5.40;56.20;;;;;;5042418;28;34122;-77
2021/12/12 06:29:54;;;;;;;5.18;2.63;;;5.40;56.20;;;;;;5041705;28;34188;-76
2021/12/12 06:32:21;;;;;;;4.95;2.55;;;5.40;56.20;;;;;;5008844;28;34280;-77
2021/12/12 06:34:49;;;;;;;5.85;2.60;;;5.40;56.20;;;;;;5023731;28;36594;-77
2021/12/12 06:37:16;;;;;;;3.67;2.28;;;5.40;56.20;;;;;;5007755;28;34332;-77
2021/12/12 06:39:44;;;;;;;9.57;3.15;;;5.40;56.30;;;;;;5040567;28;34335;-77
2021/12/12 06:42:12;;;;;;;3.95;2.72;;;5.40;56.20;;;;;;5041982;28;34463;-77
2021/12/12 06:44:40;;;;;;;4.15;2.70;;;5.40;56.20;;;;;;5023978;28;36076;-77
2021/12/12 06:47:08;;;;;;;6.65;2.55;;;5.40;56.20;;;;;;5024123;28;34177;-77
2021/12/12 06:49:35;;;;;;;3.17;2.55;;;5.40;56.20;;;;;;5040954;28;34403;-77
2021/12/12 06:52:05;;;;;;;3.72;2.03;;;5.40;56.20;;;;;;5024473;28;34328;-77
2021/12/12 06:54:33;;;;;;;9.00;2.75;;;5.50;56.20;;;;;;5007125;28;35788;-77
2021/12/12 06:57:05;;;;;;;7.53;2.70;;;5.40;56.20;;;;;;5040233;28;34228;-76
2021/12/12 06:59:33;;;;;;;6.13;2.65;;;5.40;56.20;;;;;;5023869;28;34107;-77
2021/12/12 07:02:00;;;;;;;4.38;2.40;;;5.40;56.30;;;;;;5040464;28;34362;-77
2021/12/12 07:04:28;;;;;;;5.82;2.78;;;5.40;56.30;;;;;;5039639;28;35709;-77
2021/12/12 07:06:58;;;;;;;5.68;2.60;;;5.40;56.30;;;;;;5040106;28;34245;-77
2021/12/12 07:09:27;;;;;;;6.30;2.88;;;5.40;56.30;;;;;;5040684;28;34569;-77
2021/12/12 07:11:54;;;;;;;6.65;2.45;;;5.40;56.40;;;;;;5040040;28;34332;-77
2021/12/12 07:14:20;;;;;;;3.95;2.40;;;5.40;56.40;;;;;;5039865;28;34385;-77
2021/12/12 07:16:46;;;;;;;5.18;2.75;;;5.50;56.50;;;;;;5007600;28;34231;-77
2021/12/12 07:19:16;;;;;;;4.47;2.45;;;5.50;57.30;;;;;;5049181;28;34219;-77
2021/12/12 07:21:44;;;;;;;8.02;2.90;;;5.50;56.50;;;;;;5026656;28;34466;-77
2021/12/12 07:24:10;;;;;;;4.78;2.25;;;5.50;56.50;;;;;;5061367;28;34995;-77
2021/12/12 07:26:37;;;;;;;4.30;2.75;;;5.50;56.50;;;;;;5043902;28;34278;-77
2021/12/12 07:29:04;;;;;;;5.30;2.55;;;5.50;56.50;;;;;;5044029;28;34368;-78
2021/12/12 07:31:35;;;;;;;4.78;2.65;;;5.50;56.40;;;;;;5027456;28;34531;-77
2021/12/12 07:34:05;;;;;;;3.72;2.60;;;5.60;56.40;;;;;;5043176;28;35711;-77
2021/12/12 07:36:34;;;;;;;5.72;2.70;;;5.60;56.30;;;;;;5043510;28;34256;-77
2021/12/12 07:39:05;;;;;;;3.88;2.67;;;5.60;56.40;;;;;;5061252;28;34172;-77
2021/12/12 07:41:33;;;;;;;6.18;2.95;;;5.50;56.40;;;;;;5061049;28;34618;-77
2021/12/12 07:44:04;;;;;;;2.95;2.42;;;5.50;56.40;;;;;;5026534;28;36543;-77
2021/12/12 07:46:30;;;;;;;6.30;2.85;;;5.60;56.40;;;;;;5043395;28;34429;-77
2021/12/12 07:48:56;;;;;;;7.10;2.80;;;5.60;57.10;;;;;;5043347;28;34908;-77
2021/12/12 07:51:24;;;;;;;6.45;2.85;;;5.60;56.50;;;;;;5060852;28;34392;-77
2021/12/12 07:53:54;;;;;;;6.32;2.53;;;5.60;56.50;;;;;;5026450;28;36077;-77
2021/12/12 07:56:22;;;;;;;4.75;2.85;;;5.60;56.50;;;;;;5027700;28;34379;-77
2021/12/12 07:58:50;;;;;;;6.70;3.30;;;5.60;56.60;;;;;;5043533;28;34413;-76
2021/12/12 08:01:16;;;;;;;4.45;2.53;;;5.60;56.60;;;;;;5042959;28;34172;-77
2021/12/12 08:03:44;;;;;;;4.35;2.40;;;5.60;56.50;;;;;;5025848;28;35725;-77
2021/12/12 08:06:14;;;;;;;4.82;2.67;;;5.60;56.50;;;;;;5042537;28;34237;-77
2021/12/12 08:08:42;;;;;;;5.32;2.80;;;5.60;56.60;;;;;;5044330;28;34226;-77
2021/12/12 08:11:09;;;;;;;5.28;2.38;;;5.60;56.60;;;;;;5042955;28;34753;-77
2021/12/12 08:13:36;;;;;;;4.22;2.03;;;5.70;56.80;;;;;;5026292;28;35892;-77
2021/12/12 08:16:05;;;;;;;5.50;2.40;;;5.70;56.80;;;;;;5042469;28;34153;-76
2021/12/12 08:18:33;;;;;;;6.07;2.92;;;5.70;56.70;;;;;;5042563;28;34157;-77
2021/12/12 08:21:01;;;;;;;3.67;2.60;;;5.70;56.70;;;;;;5026125;28;34146;-77
2021/12/12 08:23:28;;;;;;;5.22;2.63;;;5.70;56.60;;;;;;5026035;28;36552;-77
2021/12/12 08:25:54;;;;;;;4.72;2.40;;;5.70;56.70;;;;;;5026133;28;34197;-77
2021/12/12 08:28:21;;;;;;;5.07;2.50;;;5.80;56.70;;;;;;5060097;28;34079;-77
2021/12/12 08:30:49;;;;;;;4.35;2.58;;;5.80;56.60;;;;;;5060551;28;34192;-77
2021/12/12 08:33:16;;;;;;;4.22;2.60;;;5.80;56.80;;;;;;5025794;28;35794;-77
2021/12/12 08:35:43;;;;;;;3.05;2.25;;;5.80;56.80;;;;;;5043079;28;34450;-77
2021/12/12 08:38:12;;;;;;;4.57;2.60;;;5.90;56.80;;;;;;5025926;28;34446;-77
2021/12/12 08:40:43;;;;;;;6.07;3.00;;;5.90;56.80;;;;;;5042983;28;34288;-77
2021/12/12 08:43:13;;;;;;;5.18;2.45;;;5.90;56.70;;;;;;5026016;28;35670;-77
2021/12/12 08:45:50;;;;;;;2.72;2.45;;;5.90;56.70;;;;;;5042663;28;34287;-77
2021/12/12 08:48:19;;;;;;;4.43;2.53;;;5.90;56.70;;;;;;5041973;28;34311;-77
2021/12/12 08:50:49;;;;;;;3.95;2.38;;;5.90;56.70;;;;;;5042820;28;34182;-77
2021/12/12 08:53:17;;;;;;;3.13;2.45;;;5.90;56.80;;;;;;5025737;28;36233;-77
2021/12/12 08:55:45;;;;;;;5.90;2.40;;;5.90;56.70;;;;;;5041647;28;34489;-77
2021/12/12 08:58:17;;;;;;;3.85;2.60;;;5.90;56.70;;;;;;5059193;28;34186;-77
2021/12/12 09:00:53;;;;;;;8.23;2.50;;;5.90;56.70;;;;;;5025388;28;34596;-77
2021/12/12 09:03:35;;;;;;;3.80;2.70;;;5.90;56.80;;;;;;5025128;28;35676;-77
2021/12/12 09:06:01;;;;;;;2.33;2.08;;;6.00;56.80;;;;;;5044015;28;34389;-77
2021/12/12 09:08:38;;;;;;;8.15;2.25;;;6.00;56.80;;;;;;5059599;28;34162;-77
2021/12/12 09:11:13;;;;;;;4.50;2.50;;;6.00;56.80;;;;;;5042825;28;34351;-77
2021/12/12 09:13:49;;;;;;;4.30;2.38;;;6.00;56.90;;;;;;5041907;28;35720;-77
2021/12/12 09:16:29;;;;;;;5.03;2.42;;;6.00;56.90;;;;;;5043161;28;34284;-77
2021/12/12 09:19:02;;;;;;;6.47;2.55;;;6.00;56.80;;;;;;5023548;28;34263;-77
2021/12/12 09:21:47;;;;;;;4.38;2.50;;;6.00;56.70;;;;;;5025105;28;34157;-77
2021/12/12 09:24:24;;;;;;;3.17;2.42;;;6.10;57.00;;;;;;5043374;28;34583;-77
2021/12/12 09:26:54;;;;;;;3.22;2.47;;;6.10;56.90;;;;;;5042141;28;35045;-77
2021/12/12 09:29:29;;;;;;;6.18;3.35;;;6.10;56.80;;;;;;5058901;28;34362;-77
2021/12/12 09:32:03;;;;;;;5.18;2.80;;;6.10;56.80;;;;;;5059525;28;34283;-77
2021/12/12 09:34:37;;;;;;;5.78;3.42;;;6.10;56.90;;;;;;5024728;28;36193;-77
2021/12/12 09:37:33;;;;;;;8.32;3.67;;;6.20;56.90;;;;;;5025627;28;34301;-77
2021/12/12 09:40:15;;;;;;;10.93;3.25;;;6.20;56.90;;;;;;5058884;28;34160;-77
2021/12/12 09:43:02;;;;;;;3.50;2.78;;;6.20;56.80;;;;;;5041423;28;34458;-77
2021/12/12 09:45:48;;;;;;;6.30;2.95;;;6.20;56.90;;;;;;5024401;28;35794;-77
2021/12/12 09:52:01;;;;;;;6.80;3.33;;;6.20;56.90;;;;;;5046916;28;34234;-77
2021/12/12 09:54:58;;;;;;;3.55;2.80;;;6.20;56.90;;;;;;5041453;28;34461;-77
2021/12/12 09:57:42;;;;;;;3.97;2.67;;;6.20;56.90;;;;;;5040884;28;36886;-77
2021/12/12 10:00:17;;;;;;;6.20;3.42;;;6.20;56.90;;;;;;5026945;28;34134;-77
2021/12/12 10:03:10;;;;;;;4.95;3.22;;;6.20;56.80;;;;;;5024794;28;34338;-77
2021/12/12 10:06:08;;;;;;;4.40;3.13;;;6.30;57.00;;;;;;5041271;28;34491;-77
2021/12/12 10:08:54;;;;;;;5.05;2.67;;;6.30;57.00;;;;;;5058279;28;34401;-77
2021/12/12 10:11:40;;;;;;;10.35;3.45;;;6.30;57.10;;;;;;5041824;28;34540;-77
2021/12/12 10:14:15;;;;;;;4.88;3.20;;;6.30;57.00;;;;;;5024524;28;34271;-77
2021/12/12 10:17:16;;;;;;;5.35;3.50;;;6.30;57.00;;;;;;5041170;28;34411;-77
2021/12/12 10:19:50;;;;;;;9.77;3.83;;;6.30;57.10;;;;;;5023363;28;35986;-77
2021/12/12 10:22:46;;;;;;;4.60;3.20;;;6.30;57.00;;;;;;5038282;28;34121;-77
2021/12/12 10:25:17;;;;;;;3.78;2.80;;;6.40;57.10;;;;;;5037278;28;34335;-77
2021/12/12 10:27:50;;;;;;;4.75;3.53;;;6.30;57.00;;;;;;5022004;28;34414;-77
2021/12/12 10:30:22;;;;;;;4.32;3.03;;;6.40;56.90;;;;;;5039710;28;35594;-77
2021/12/12 10:32:56;;;;;;;4.05;3.10;;;6.40;56.90;;;;;;5043038;28;34351;-77
2021/12/12 10:35:34;;;;;;;4.00;2.83;;;6.40;56.90;;;;;;5041923;28;34141;-77
2021/12/12 10:38:16;;;;;;;4.18;2.33;;;6.50;57.00;;;;;;5040277;28;34301;-77
2021/12/12 10:40:54;;;;;;;4.30;2.80;;;6.50;56.80;;;;;;5040541;28;35748;-77
2021/12/12 10:43:28;;;;;;;3.45;2.72;;;6.60;56.80;;;;;;5025032;28;35023;-77
2021/12/12 10:46:05;;;;;;;4.63;2.83;;;6.60;56.70;;;;;;5024493;28;34094;-77
2021/12/12 10:48:41;;;;;;;2.65;2.20;;;6.70;56.80;;;;;;5024279;28;34201;-77
2021/12/12 10:51:14;;;;;;;4.00;2.55;;;6.70;56.60;;;;;;5040433;28;35594;-77
2021/12/12 10:53:51;;;;;;;3.33;2.60;;;6.80;56.60;;;;;;5025334;28;34278;-77
2021/12/12 10:56:34;;;;;;;4.28;2.00;;;6.80;56.50;;;;;;5041205;28;34405;-77
2021/12/12 10:59:10;;;;;;;4.68;2.38;;;6.80;56.50;;;;;;5041068;28;34209;-77
2021/12/12 11:01:42;;;;;;;4.28;2.40;;;6.80;56.50;;;;;;5041030;28;35575;-77
2021/12/12 11:04:16;;;;;;;3.45;2.50;;;6.80;56.50;;;;;;5040933;28;34183;-77
2021/12/12 11:06:51;;;;;;;4.55;2.20;;;6.80;56.50;;;;;;5025044;28;34111;-77
2021/12/12 11:09:38;;;;;;;2.88;2.25;;;6.90;56.50;;;;;;5040867;28;34025;-77
2021/12/12 11:12:19;;;;;;;4.28;2.33;;;6.80;56.60;;;;;;5040576;28;36157;-77
2021/12/12 11:14:57;;;;;;;4.85;2.22;;;6.90;56.70;;;;;;5024949;28;34258;-77
2021/12/12 11:17:31;;;;;;;7.53;2.50;;;6.90;56.60;;;;;;5041554;28;34153;-77
2021/12/12 11:20:16;;;;;;;4.03;2.08;;;7.00;56.50;;;;;;5058826;28;34079;-77
2021/12/12 11:22:48;;;;;;;3.22;1.90;;;7.00;56.40;;;;;;5061623;28;36650;-77
2021/12/12 11:25:35;;;;;;;2.15;1.90;;;7.00;56.30;;;;;;5061820;28;33744;-77
2021/12/12 11:28:06;;;;;;;1.95;1.80;;;7.00;56.30;;;;;;5062420;28;34116;-77
2021/12/12 11:30:39;;;;;;;3.33;1.80;;;7.10;56.40;;;;;;5062462;28;34437;-77
2021/12/12 11:33:10;;;;;;;2.45;1.67;;;7.10;56.30;;;;;;5044677;27;35773;-77
2021/12/12 11:35:41;;;;;;;3.17;1.50;;;7.10;56.30;;;;;;5061510;28;34178;-77
2021/12/12 11:38:35;;;;;;;2.60;1.50;;;7.10;56.20;;;;;;5047402;27;33798;-77
2021/12/12 11:41:25;;;;;;;2.15;1.25;;;7.20;56.30;;;;;;5045870;27;34098;-77
2021/12/12 11:44:10;;;;;;;1.83;1.25;;;7.20;56.30;;;;;;5062821;28;35907;-77
2021/12/12 11:46:56;;;;;;;1.77;1.23;;;7.10;56.30;;;;;;5064340;28;34178;-77
2021/12/12 11:49:29;;;;;;;2.72;1.17;;;7.20;56.30;;;;;;5031849;28;34114;-77
2021/12/12 11:52:08;;;;;;;2.60;1.33;;;7.10;56.30;;;;;;5063478;28;34506;-77
2021/12/12 11:54:55;;;;;;;2.63;1.35;;;7.20;56.40;;;;;;5029084;28;35922;-77
2021/12/12 11:57:27;;;;;;;1.45;1.35;;;7.10;56.30;;;;;;5048868;27;34556;-77
2021/12/12 12:00:14;;;;;;;1.75;1.30;;;7.10;56.30;;;;;;5031478;28;34182;-77
2021/12/12 12:03:21;;;;;;;1.45;1.33;;;7.20;57.00;;;;;;5064229;28;34196;-77
2021/12/12 12:06:07;;;;;;;2.90;1.17;;;7.20;56.40;;;;;;5049048;27;36744;-77
2021/12/12 12:08:52;;;;;;;3.95;1.30;;;7.20;56.50;;;;;;5063485;28;34332;-77
2021/12/12 12:11:47;;;;;;;1.30;1.20;;;7.20;56.40;;;;;;5046208;27;34115;-77
2021/12/12 12:14:30;;;;;;;1.67;1.30;;;7.20;56.30;;;;;;5049636;27;34526;-77
2021/12/12 12:17:07;;;;;;;2.95;1.42;;;7.20;56.40;;;;;;5061900;28;36026;-77
2021/12/12 12:19:58;;;;;;;3.08;1.25;;;7.30;56.50;;;;;;5063431;28;34336;-77
2021/12/12 12:22:37;;;;;;;1.30;1.20;;;7.20;56.20;;;;;;5063820;28;34284;-77
2021/12/12 12:25:16;;;;;;;1.85;1.70;;;7.30;56.40;;;;;;5098404;27;34114;-78
2021/12/12 12:27:59;;;;;;;2.75;1.30;;;7.20;56.30;;;;;;5057874;27;35665;-77
2021/12/12 12:31:00;;;;;;;1.40;1.30;;;7.30;56.50;;;;;;5064662;28;34525;-77
2021/12/12 12:33:57;;;;;;;2.40;1.35;;;7.30;56.50;;;;;;5051187;28;34144;-77
2021/12/12 12:37:03;;;;;;;2.38;1.60;;;7.30;56.40;;;;;;5063086;28;34573;-77
2021/12/12 12:40:04;;;;;;;1.55;1.38;;;7.30;56.50;;;;;;5038818;28;35651;-77
2021/12/12 12:43:01;;;;;;;1.20;1.10;;;7.30;56.30;;;;;;5052391;28;34188;-77
2021/12/12 12:46:06;;;;;;;2.13;1.40;;;7.40;56.30;;;;;;5064446;28;34247;-77
2021/12/12 12:49:07;;;;;;;1.85;1.48;;;7.40;57.00;;;;;;5038997;28;33867;-77
2021/12/12 12:52:12;;;;;;;3.00;1.70;;;7.40;56.40;;;;;;5050123;28;35769;-77
2021/12/12 12:55:03;;;;;;;2.47;1.50;;;7.50;56.30;;;;;;5052576;28;34198;-77
2021/12/12 12:57:38;;;;;;;1.95;1.42;;;7.50;56.20;;;;;;5048119;28;34435;-78
2021/12/12 13:00:14;;;;;;;2.05;1.52;;;7.50;56.20;;;;;;5046287;27;34405;-77
2021/12/12 13:03:08;;;;;;;1.73;1.50;;;7.50;56.30;;;;;;5064019;28;35625;-77
2021/12/12 13:06:05;;;;;;;1.60;1.42;;;7.50;56.40;;;;;;5045970;27;34355;-77
2021/12/12 13:09:09;;;;;;;1.70;1.60;;;7.50;56.40;;;;;;5065092;28;34357;-77
2021/12/12 13:12:06;;;;;;;2.78;1.58;;;7.50;56.30;;;;;;5052142;28;34252;-77
2021/12/12 13:14:51;;;;;;;3.03;1.60;;;7.50;56.30;;;;;;5048048;27;36686;-77
2021/12/12 13:17:31;;;;;;;1.48;1.38;;;7.60;56.30;;;;;;5032425;28;33833;-77
2021/12/12 13:20:32;;;;;;;2.60;1.90;;;7.60;56.30;;;;;;5063737;28;34240;-77
2021/12/12 13:23:22;;;;;;;2.08;1.45;;;7.60;56.30;;;;;;5064982;28;34037;-77
2021/12/12 13:25:56;;;;;;;2.05;1.55;;;7.60;56.30;;;;;;5032735;28;35544;-77
2021/12/12 13:28:32;;;;;;;2.85;1.95;;;7.60;56.30;;;;;;5047671;28;33845;-77
2021/12/12 13:31:13;;;;;;;2.05;1.85;;;7.60;56.30;;;;;;5065682;28;34519;-77
2021/12/12 13:33:48;;;;;;;2.47;1.70;;;7.60;56.40;;;;;;5064682;28;34267;-77
2021/12/12 13:36:46;;;;;;;2.13;1.90;;;7.50;56.50;;;;;;5063524;28;34830;-77
2021/12/12 13:39:34;;;;;;;2.72;1.50;;;7.60;56.50;;;;;;5063050;28;34110;-77
2021/12/12 13:42:19;;;;;;;1.90;1.50;;;7.60;56.50;;;;;;5048877;27;34149;-77
2021/12/12 13:45:07;;;;;;;2.58;1.98;;;7.50;56.50;;;;;;5063796;28;34195;-77
2021/12/12 13:48:01;;;;;;;1.70;1.60;;;7.60;56.50;;;;;;5063331;28;35649;-77
2021/12/12 13:50:43;;;;;;;2.35;1.70;;;7.60;56.50;;;;;;5036145;28;34127;-77
2021/12/12 13:53:40;;;;;;;1.67;1.58;;;7.60;56.50;;;;;;5063580;28;34366;-77
2021/12/12 13:56:21;;;;;;;2.78;2.00;;;7.60;56.50;;;;;;5063105;28;34023;-77